This is the latest recevied weather packets stored in our database for station/object KD8UYA. If no packets are shown the sender has not sent any weather packets the latest 10 day(s).
| Time | Temp. | Humidity | Pressure | Rain* | Wind** | Luminosity | Snow |
|---|---|---|---|---|---|---|---|
| 1777615218 | 6.11° C | 85% | 1012.5 hPa | 0 mm | - | - | - |
| 1777614311 | 6.11° C | 83% | 1012.4 hPa | 0 mm | - | - | - |
| 1777613417 | 5.56° C | 85% | 1012.6 hPa | 0 mm | - | - | - |
| 1777612505 | 5.56° C | 88% | 1012.9 hPa | 0 mm | - | - | - |
| 1777611606 | 5° C | 86% | 1013.1 hPa | 0 mm | - | - | - |
| 1777610703 | 5.56° C | 85% | 1013.1 hPa | 0 mm | - | - | - |
| 1777609863 | 5.56° C | 86% | 1013.1 hPa | 0 mm | - | - | - |
| 1777608965 | 5.56° C | 86% | 1013.1 hPa | 0 mm | - | - | - |
| 1777608065 | 5.56° C | 86% | 1013 hPa | 0 mm | - | - | - |
| 1777607157 | 5.56° C | 87% | 1013.4 hPa | 0 mm | - | - | - |
| 1777606255 | 5.56° C | 88% | 1013.4 hPa | 0 mm | - | - | - |
| 1777605355 | 5.56° C | 87% | 1013.6 hPa | 0 mm | - | - | - |
| 1777604456 | 5.56° C | 89% | 1013.7 hPa | 0 mm | - | - | - |
| 1777603576 | 5.56° C | 86% | 1013.6 hPa | 0 mm | - | - | - |
| 1777602654 | 5.56° C | 85% | 1013.5 hPa | 0 mm | - | - | - |
| 1777601772 | 5.56° C | 82% | 1013.7 hPa | 0 mm | - | - | - |
| 1777600856 | 6.11° C | 82% | 1013.4 hPa | 0 mm | - | - | - |
| 1777599952 | 6.67° C | 79% | 1013.2 hPa | 0 mm | - | - | - |
| 1777599050 | 7.22° C | 76% | 1013.2 hPa | 0 mm | - | - | - |
| 1777598151 | 7.78° C | 78% | 1013.1 hPa | 0 mm | - | - | - |
| 1777597259 | 7.78° C | 73% | 1013.1 hPa | 0 mm | - | - | - |
| 1777596349 | 8.89° C | 70% | 1013 hPa | 0 mm | - | - | - |
| 1777595452 | 8.89° C | 66% | 1013 hPa | 0 mm | - | - | - |
| 1777594548 | 9.44° C | 62% | 1013 hPa | 0 mm | - | - | - |
| 1777593649 | 9.44° C | 62% | 1013 hPa | 0 mm | - | - | - |
* Rain latest hour (hover to see other rain measurements)
** Current wind speed in m/s (hover to see current wind gust speed)